This demonstration page uses our WeatherBlox Daily Observations layout. Learn more.

Left ArrowRight Arrow

38.88101, -77.10428

Hourly Observations for July 28, 2020

Temp ( °F °C ) Dew Point ( °F °C ) Humidity (%) Winds ( mph kmh ) Pressure ( in mb ) Visibility ( mi km ) Precip ( " mm )
12:52 am 00:52 Partly Cloudy 85 29.4 72 22.2 65 65 WSW 9 15 29.83 1010 10 16.0934 0 0
1:52 am 01:52 Partly Cloudy 83 28.3 72 22.2 70 70 S 6 9 29.82 1010 10 16.0934 0 0
2:52 am 02:52 Mostly Cloudy 82 27.8 74 23.3 77 77 SSE 5 7 29.81 1009 10 16.0934 0 0
3:52 am 03:52 Mostly Cloudy 81 27.2 73 22.8 77 77 SW 7 11 29.81 1010 10 16.0934 0 0
4:52 am 04:52 Mostly Clear 80 26.7 73 22.8 79 79 SW 6 9 29.83 1010 10 16.0934 0 0
5:52 am 05:52 Partly Cloudy 79 26.1 72 22.2 79 79 SW 6 9 29.84 1011 10 16.0934 0 0
6:52 am 06:52 Partly Cloudy 81 27.2 72 22.2 74 74 W 6 9 29.86 1011 10 16.0934 0 0
7:52 am 07:52 Partly Cloudy 84 28.9 71 21.7 65 65 WSW 6 9 29.88 1012 10 16.0934 0 0
8:52 am 08:52 Partly Cloudy 87 30.6 72 22.2 61 61 Calm 29.89 1012 10 16.0934 0 0
9:52 am 09:52 Partly Cloudy 86 30 72 22.2 63 63 NNW 15 24 29.9 1012 10 16.0934 0 0
10:52 am 10:52 Partly Cloudy 88 31.1 72 22.2 59 59 N 12 19 29.9 1013 10 16.0934 0 0
11:52 am 11:52 Mostly Sunny 91 32.8 70 21.1 50 50 W 8 13 29.9 1012 10 16.0934 0 0
12:52 pm 12:52 Partly Cloudy 92 33.3 70 21.1 49 49 W 12 19 29.9 1012 10 16.0934 0 0
1:52 pm 13:52 Partly Cloudy 90 32.2 70 21.1 52 52 NW 9 15 29.88 1012 10 16.0934 0 0
2:52 pm 14:52 Mostly Cloudy 93 33.9 70 21.1 47 47 WNW 8 13 29.86 1011 10 16.0934 0 0
3:52 pm 15:52 Mostly Cloudy 93 33.9 72 22.2 50 50 N 13 20 29.85 1011 10 16.0934 0 0
4:52 pm 16:52 Mostly Cloudy with Light Rain 87 30.6 71 21.7 59 59 NW 8 13 29.85 1011 10 16.0934 0.001 0.001
5:52 pm 17:52 Mostly Cloudy 88 31.1 71 21.7 57 57 NW 12 19 29.85 1011 10 16.0934 0.001 0.001
6:52 pm 18:52 Cloudy 88 31.1 68 20 52 52 VRB 5 7 29.87 1012 10 16.0934 0 0
8:52 pm 20:52 Mostly Cloudy 86 30 68 20 55 55 W 5 7 29.89 1012 10 16.0934 0 0
9:52 pm 21:52 Mostly Cloudy 82 27.8 74 23.3 77 77 SSW 7 11 29.91 1013 10 16.0934 0 0
10:52 pm 22:52 Mostly Cloudy 80 26.7 74 23.3 82 82 S 7 11 29.92 1013 10 16.0934 0 0
11:52 pm 23:52 Mostly Cloudy 80 26.7 73 22.8 79 79 SSW 7 11 29.93 1014 10 16.0934 0 0

Powered by AerisWeather